createdAt,value
2023-02-24T00:02:05.962Z,4.22
2023-02-24T00:04:40.123Z,4.23
2023-02-24T00:07:10.539Z,4.21
2023-02-24T00:09:38.221Z,4.22
2023-02-24T00:12:10.620Z,4.21
2023-02-24T00:14:41.007Z,4.17
2023-02-24T00:17:08.704Z,4.15
2023-02-24T00:19:36.962Z,4.15
2023-02-24T00:22:06.268Z,4.15
2023-02-24T00:24:33.371Z,4.13
2023-02-24T00:27:03.317Z,4.10
2023-02-24T00:29:30.648Z,4.10
2023-02-24T00:32:02.413Z,4.08
2023-02-24T00:34:31.548Z,4.06
2023-02-24T00:36:58.539Z,4.11
2023-02-24T00:39:34.019Z,4.10
2023-02-24T00:42:06.504Z,4.11
2023-02-24T00:44:42.042Z,4.14
2023-02-24T00:47:10.622Z,4.14
2023-02-24T00:49:43.121Z,4.17
2023-02-24T00:52:15.581Z,4.18
2023-02-24T00:54:43.865Z,4.19
2023-02-24T00:57:11.647Z,4.19
2023-02-24T00:59:39.112Z,4.19
2023-02-24T01:02:09.083Z,4.22
2023-02-24T01:04:37.738Z,4.24
2023-02-24T01:07:10.980Z,4.26
2023-02-24T01:09:39.508Z,4.30
2023-02-24T01:12:22.604Z,4.30
2023-02-24T01:14:52.639Z,4.31
2023-02-24T01:17:20.806Z,4.35
2023-02-24T01:19:49.894Z,4.36
2023-02-24T01:22:19.590Z,4.37
2023-02-24T01:24:47.008Z,4.40
2023-02-24T01:27:19.217Z,4.41
2023-02-24T01:29:47.193Z,4.43
2023-02-24T01:32:19.477Z,4.44
2023-02-24T01:34:47.872Z,4.46
2023-02-24T01:37:17.205Z,4.46
2023-02-24T01:39:46.316Z,4.47
2023-02-24T01:42:20.024Z,4.50
2023-02-24T01:44:46.871Z,4.53
2023-02-24T01:47:16.282Z,4.52
2023-02-24T01:49:47.643Z,4.51
2023-02-24T01:52:20.254Z,4.54
2023-02-24T01:54:55.271Z,4.56
2023-02-24T01:57:26.059Z,4.55
2023-02-24T01:59:58.261Z,4.55
2023-02-24T02:02:25.378Z,4.55
2023-02-24T02:04:59.857Z,4.58
2023-02-24T02:07:29.613Z,4.58
2023-02-24T02:10:00.808Z,4.58
2023-02-24T02:12:28.543Z,4.60
2023-02-24T02:14:59.463Z,4.60
2023-02-24T02:18:07.713Z,4.63
2023-02-24T02:20:42.395Z,4.63
2023-02-24T02:23:28.918Z,4.64
2023-02-24T02:26:18.968Z,4.60
2023-02-24T02:29:03.970Z,4.64
2023-02-24T02:31:42.513Z,4.60
2023-02-24T02:34:27.740Z,4.56
2023-02-24T02:37:29.633Z,4.53
2023-02-24T02:40:23.697Z,4.52
2023-02-24T02:43:18.674Z,4.51
2023-02-24T02:45:56.167Z,4.50
2023-02-24T02:48:34.575Z,4.49
2023-02-24T02:51:11.565Z,4.50
2023-02-24T02:54:10.498Z,4.52
2023-02-24T02:57:17.873Z,4.50
2023-02-24T02:59:54.458Z,4.50
2023-02-24T03:02:29.744Z,4.50
2023-02-24T03:05:00.775Z,4.44
2023-02-24T03:07:35.003Z,4.53
2023-02-24T03:10:09.736Z,4.55
2023-02-24T03:12:40.560Z,4.52
2023-02-24T03:15:11.057Z,4.57
2023-02-24T03:17:43.593Z,4.56
2023-02-24T03:20:24.350Z,4.55
2023-02-24T03:23:01.286Z,4.57
2023-02-24T03:25:44.618Z,4.54
2023-02-24T03:28:18.899Z,4.56
2023-02-24T03:30:58.044Z,4.56
2023-02-24T03:33:32.274Z,4.55
2023-02-24T03:36:01.802Z,4.55
2023-02-24T03:38:31.506Z,4.53
2023-02-24T03:40:59.249Z,4.50
2023-02-24T03:43:33.339Z,4.52
2023-02-24T03:46:01.526Z,4.50
2023-02-24T03:48:29.085Z,4.50
2023-02-24T03:50:56.229Z,4.51
2023-02-24T03:53:41.862Z,4.50
2023-02-24T03:56:27.534Z,4.55
2023-02-24T03:59:23.787Z,4.56
2023-02-24T04:02:04.137Z,4.55
2023-02-24T04:04:30.814Z,4.56
2023-02-24T04:07:23.315Z,4.55
2023-02-24T04:09:59.319Z,4.58
2023-02-24T04:12:35.432Z,4.57
2023-02-24T04:15:38.747Z,4.56
2023-02-24T04:18:20.707Z,4.54
2023-02-24T04:20:53.275Z,4.55
2023-02-24T04:23:29.048Z,4.56
2023-02-24T04:25:56.441Z,4.60
2023-02-24T04:28:25.504Z,4.59
2023-02-24T04:30:57.992Z,4.59
2023-02-24T04:33:25.711Z,4.64
2023-02-24T04:35:53.467Z,4.62
2023-02-24T04:38:20.784Z,4.62
2023-02-24T04:40:49.852Z,4.58
2023-02-24T04:43:17.526Z,4.59
2023-02-24T04:45:44.835Z,4.60
2023-02-24T04:48:14.400Z,4.60
2023-02-24T04:50:43.889Z,4.60
2023-02-24T04:53:12.832Z,4.62
2023-02-24T04:55:48.644Z,4.62
2023-02-24T04:58:19.686Z,4.63
2023-02-24T05:00:55.193Z,4.66
2023-02-24T05:03:28.995Z,4.67
2023-02-24T05:06:02.721Z,4.68
2023-02-24T05:08:31.125Z,4.67
2023-02-24T05:10:58.825Z,4.67
2023-02-24T05:13:28.489Z,4.72
2023-02-24T05:15:58.276Z,4.69
2023-02-24T05:18:30.223Z,4.69
2023-02-24T05:21:15.902Z,4.72
2023-02-24T05:23:46.981Z,4.72
2023-02-24T05:26:17.335Z,4.71
2023-02-24T05:28:49.428Z,4.67
2023-02-24T05:31:28.603Z,4.66
2023-02-24T05:33:58.453Z,4.68
2023-02-24T05:36:28.040Z,4.68
2023-02-24T05:38:58.148Z,4.71
2023-02-24T05:41:32.635Z,4.73
2023-02-24T05:44:02.576Z,4.74
2023-02-24T05:46:32.911Z,4.76
2023-02-24T05:49:02.594Z,4.79
2023-02-24T05:51:36.652Z,4.82
2023-02-24T05:54:05.311Z,4.85
2023-02-24T05:56:33.957Z,4.85
2023-02-24T05:59:02.593Z,4.89
2023-02-24T06:01:31.763Z,4.89
2023-02-24T06:04:06.129Z,4.88
2023-02-24T06:06:35.263Z,4.87
2023-02-24T06:09:13.477Z,4.88
2023-02-24T06:11:42.297Z,4.91
2023-02-24T06:14:10.421Z,4.93
2023-02-24T06:16:40.086Z,4.96
2023-02-24T06:19:10.236Z,5.01
2023-02-24T06:21:41.592Z,5.06
2023-02-24T06:24:15.525Z,5.11
2023-02-24T06:26:45.908Z,5.15
2023-02-24T06:29:14.924Z,5.22
2023-02-24T06:31:43.198Z,5.27
2023-02-24T06:34:18.599Z,5.32
2023-02-24T06:36:47.035Z,5.28
2023-02-24T06:39:14.614Z,5.42
2023-02-24T06:41:42.783Z,5.43
2023-02-24T06:44:09.897Z,5.48
2023-02-24T06:46:37.309Z,5.54
2023-02-24T06:49:04.251Z,5.60
2023-02-24T06:51:31.349Z,5.61
2023-02-24T06:53:59.592Z,5.62
2023-02-24T06:56:28.109Z,5.68
2023-02-24T06:58:57.034Z,5.71
2023-02-24T07:01:26.939Z,5.75
2023-02-24T07:04:17.867Z,5.75
2023-02-24T07:06:52.230Z,5.83
2023-02-24T07:09:20.864Z,5.82
2023-02-24T07:11:52.538Z,5.87
2023-02-24T07:14:22.331Z,5.87
2023-02-24T07:16:54.296Z,5.88
2023-02-24T07:19:25.933Z,5.94
2023-02-24T07:22:00.437Z,5.98
2023-02-24T07:24:39.462Z,6.02
2023-02-24T07:27:12.997Z,6.03
2023-02-24T07:29:40.045Z,6.08
2023-02-24T07:32:09.473Z,6.16
2023-02-24T07:34:40.107Z,6.23
2023-02-24T07:37:08.872Z,6.25
2023-02-24T07:39:37.754Z,6.29
2023-02-24T07:42:05.827Z,6.36
2023-02-24T07:44:33.227Z,6.43
2023-02-24T07:47:00.576Z,6.50
2023-02-24T07:49:30.645Z,6.56
2023-02-24T07:51:58.220Z,6.60
2023-02-24T07:54:31.441Z,6.67
2023-02-24T07:57:01.952Z,6.75
2023-02-24T07:59:32.580Z,6.79
2023-02-24T08:02:00.635Z,6.87
2023-02-24T08:04:30.308Z,6.93
2023-02-24T08:06:59.406Z,6.97
2023-02-24T08:09:46.655Z,7.00
2023-02-24T08:12:22.093Z,7.06
2023-02-24T08:14:51.848Z,7.12
2023-02-24T08:17:24.300Z,7.24
2023-02-24T08:20:12.759Z,7.32
2023-02-24T08:22:44.565Z,7.44
2023-02-24T08:25:19.229Z,7.52
2023-02-24T08:28:07.519Z,7.54
2023-02-24T08:30:40.453Z,7.74
2023-02-24T08:33:10.366Z,7.81
2023-02-24T08:35:44.750Z,7.92
2023-02-24T08:38:19.282Z,8.03
2023-02-24T08:40:54.433Z,8.14
2023-02-24T08:43:30.680Z,8.26
2023-02-24T08:46:13.206Z,8.38
2023-02-24T08:48:46.783Z,8.48
2023-02-24T08:51:35.055Z,8.51
2023-02-24T08:54:11.669Z,8.53
2023-02-24T08:56:44.097Z,8.61
2023-02-24T08:59:30.888Z,8.66
2023-02-24T09:02:17.868Z,8.73
2023-02-24T09:04:49.732Z,8.76
2023-02-24T09:07:40.859Z,8.77
2023-02-24T09:10:18.503Z,8.66
2023-02-24T09:12:45.642Z,8.65
2023-02-24T09:15:17.004Z,8.77
2023-02-24T09:17:47.245Z,8.88
2023-02-24T09:20:43.660Z,9.04
2023-02-24T09:23:20.512Z,9.16
2023-02-24T09:25:50.997Z,9.24
2023-02-24T09:28:20.587Z,9.23
2023-02-24T09:30:59.093Z,9.34
2023-02-24T09:33:30.054Z,9.33
2023-02-24T09:36:09.828Z,9.37
2023-02-24T09:39:01.481Z,9.50
2023-02-24T09:41:56.474Z,9.69
2023-02-24T09:44:33.411Z,9.95
2023-02-24T09:47:09.371Z,10.09
2023-02-24T09:49:46.936Z,10.15
2023-02-24T09:52:17.699Z,10.28
2023-02-24T09:55:13.874Z,10.30
2023-02-24T09:58:12.377Z,10.24
2023-02-24T10:00:44.628Z,10.28
2023-02-24T10:03:42.722Z,10.32
2023-02-24T10:06:20.840Z,10.39
2023-02-24T10:09:12.689Z,10.33
2023-02-24T10:11:55.826Z,10.29
2023-02-24T10:15:14.785Z,10.16
2023-02-24T10:17:47.260Z,10.08
2023-02-24T10:20:31.414Z,10.07
2023-02-24T10:23:01.702Z,10.07
2023-02-24T10:25:36.549Z,10.13
2023-02-24T10:28:15.023Z,10.20
2023-02-24T10:30:47.639Z,10.21
2023-02-24T10:33:18.793Z,10.20
2023-02-24T10:35:45.531Z,10.17
2023-02-24T10:38:12.332Z,10.21
2023-02-24T10:40:57.121Z,10.21
2023-02-24T10:43:31.870Z,10.19
2023-02-24T10:46:08.416Z,10.15
2023-02-24T10:48:42.614Z,10.15
2023-02-24T10:51:20.754Z,10.12
2023-02-24T10:54:08.853Z,10.08
2023-02-24T10:56:44.900Z,10.07
2023-02-24T10:59:25.071Z,10.07
2023-02-24T11:01:59.114Z,10.05
2023-02-24T11:05:02.556Z,10.06
2023-02-24T11:07:53.744Z,10.06
2023-02-24T11:10:32.637Z,10.03
2023-02-24T11:13:19.608Z,10.00
2023-02-24T11:16:11.966Z,9.95
2023-02-24T11:18:39.964Z,9.92
2023-02-24T11:21:11.108Z,9.94
2023-02-24T11:23:45.730Z,9.95
2023-02-24T11:26:31.931Z,9.97
2023-02-24T11:29:32.702Z,9.96
2023-02-24T11:32:22.378Z,9.96
2023-02-24T11:35:06.589Z,9.92
2023-02-24T11:37:56.714Z,9.90
2023-02-24T11:40:32.465Z,9.91
2023-02-24T11:43:04.852Z,9.92
2023-02-24T11:45:49.610Z,9.95
2023-02-24T11:48:21.784Z,9.86
2023-02-24T11:50:58.224Z,9.99
2023-02-24T11:53:30.517Z,9.99
2023-02-24T11:56:19.637Z,9.96
2023-02-24T11:58:55.968Z,9.90
2023-02-24T12:01:35.833Z,9.87
2023-02-24T12:04:19.345Z,9.86
2023-02-24T12:07:02.244Z,9.84
2023-02-24T12:09:34.513Z,9.78
2023-02-24T12:12:10.216Z,9.73
2023-02-24T12:14:47.945Z,9.76
2023-02-24T12:17:26.426Z,9.75
2023-02-24T12:20:14.213Z,9.75
2023-02-24T12:22:51.016Z,9.78
2023-02-24T12:25:25.299Z,9.76
2023-02-24T12:28:11.568Z,9.81
2023-02-24T12:31:08.947Z,9.77
2023-02-24T12:34:03.054Z,9.77
2023-02-24T12:36:39.645Z,9.76
2023-02-24T12:39:30.701Z,9.76
2023-02-24T12:42:02.995Z,9.76
2023-02-24T12:44:43.510Z,9.76
2023-02-24T12:47:15.558Z,9.78
2023-02-24T12:49:58.700Z,9.76
2023-02-24T12:53:00.414Z,9.75
2023-02-24T12:55:37.115Z,9.70
2023-02-24T12:58:28.210Z,9.69
2023-02-24T13:01:06.714Z,9.63
2023-02-24T13:04:00.783Z,9.59
2023-02-24T13:06:48.815Z,9.53
2023-02-24T13:09:27.690Z,9.49
2023-02-24T13:12:07.213Z,9.48
2023-02-24T13:14:36.981Z,9.47
2023-02-24T13:17:27.130Z,9.45
2023-02-24T13:19:55.622Z,9.48
2023-02-24T13:22:25.023Z,9.51
2023-02-24T13:24:54.828Z,9.52
2023-02-24T13:27:24.703Z,9.54
2023-02-24T13:29:55.142Z,9.57
2023-02-24T13:32:36.372Z,9.58
2023-02-24T13:35:15.090Z,9.63
2023-02-24T13:37:44.405Z,9.66
2023-02-24T13:40:23.783Z,9.69
2023-02-24T13:42:56.617Z,9.69
2023-02-24T13:45:25.622Z,9.68
2023-02-24T13:48:17.840Z,9.69
2023-02-24T13:50:59.241Z,9.68
2023-02-24T13:53:31.851Z,9.70
2023-02-24T13:56:17.533Z,9.75
2023-02-24T13:58:53.158Z,9.77
2023-02-24T14:01:21.751Z,9.82
2023-02-24T14:04:22.778Z,9.88
2023-02-24T14:06:53.979Z,9.93
2023-02-24T14:09:37.853Z,9.99
2023-02-24T14:12:13.015Z,10.03
2023-02-24T14:14:42.928Z,10.05
2023-02-24T14:17:31.380Z,10.09
2023-02-24T14:20:10.156Z,10.08
2023-02-24T14:22:53.206Z,10.07
2023-02-24T14:25:22.256Z,10.05
2023-02-24T14:27:52.189Z,10.04
2023-02-24T14:30:41.371Z,10.06
2023-02-24T14:33:21.312Z,9.98
2023-02-24T14:35:48.754Z,10.03
2023-02-24T14:38:39.851Z,9.99
2023-02-24T14:41:24.879Z,9.96
2023-02-24T14:43:52.652Z,9.90
2023-02-24T14:46:20.845Z,9.91
2023-02-24T14:48:53.978Z,9.98
2023-02-24T14:51:29.210Z,9.99
2023-02-24T14:54:03.654Z,10.00
2023-02-24T14:56:34.309Z,9.99
2023-02-24T14:59:03.122Z,10.00
2023-02-24T15:01:38.934Z,9.99
2023-02-24T15:04:24.474Z,9.98
2023-02-24T15:06:51.534Z,9.99
2023-02-24T15:09:33.167Z,9.99
2023-02-24T15:12:10.994Z,9.96
2023-02-24T15:14:37.988Z,9.91
2023-02-24T15:17:14.763Z,9.89
2023-02-24T15:19:54.446Z,9.87
2023-02-24T15:22:39.555Z,9.85
2023-02-24T15:25:41.823Z,9.83
2023-02-24T15:28:35.560Z,9.80
2023-02-24T15:31:04.825Z,9.77
2023-02-24T15:33:41.449Z,9.74
2023-02-24T15:36:37.433Z,9.67
2023-02-24T15:39:08.009Z,9.67
2023-02-24T15:41:42.951Z,9.65
2023-02-24T15:45:11.444Z,9.61
2023-02-24T15:47:45.798Z,9.63
2023-02-24T15:50:13.515Z,9.61
2023-02-24T15:52:41.061Z,9.59
2023-02-24T15:55:15.455Z,9.56
2023-02-24T15:57:42.524Z,9.54
2023-02-24T16:00:13.606Z,9.53
2023-02-24T16:02:41.346Z,9.52
2023-02-24T16:05:12.580Z,9.51
2023-02-24T16:07:39.810Z,9.49
2023-02-24T16:10:07.664Z,9.51
2023-02-24T16:12:39.193Z,9.47
2023-02-24T16:15:11.695Z,9.46
2023-02-24T16:17:40.803Z,9.42
2023-02-24T16:20:12.705Z,9.40
2023-02-24T16:22:39.328Z,9.40
2023-02-24T16:25:07.169Z,9.38
2023-02-24T16:27:34.610Z,9.35
2023-02-24T16:30:01.352Z,9.34
2023-02-24T16:32:28.243Z,9.32
2023-02-24T16:34:55.167Z,9.26
2023-02-24T16:37:28.634Z,9.24
2023-02-24T16:39:55.795Z,9.19
2023-02-24T16:42:22.750Z,9.16
2023-02-24T16:44:50.437Z,9.13
2023-02-24T16:47:21.640Z,9.14
2023-02-24T16:49:48.917Z,9.11
2023-02-24T16:52:19.327Z,9.09
2023-02-24T16:54:46.453Z,9.08
2023-02-24T16:57:13.442Z,9.02
2023-02-24T16:59:40.082Z,9.03
2023-02-24T17:02:07.117Z,8.99
2023-02-24T17:04:35.319Z,8.98
2023-02-24T17:07:01.936Z,8.95
2023-02-24T17:09:30.792Z,8.95
2023-02-24T17:11:57.456Z,8.89
2023-02-24T17:14:24.999Z,8.90
2023-02-24T17:16:51.889Z,8.89
2023-02-24T17:19:19.484Z,8.72
2023-02-24T17:21:46.282Z,8.71
2023-02-24T17:24:16.347Z,8.77
2023-02-24T17:26:43.366Z,8.71
2023-02-24T17:29:11.365Z,8.68
2023-02-24T17:31:38.183Z,8.66
2023-02-24T17:34:06.355Z,8.65
2023-02-24T17:36:33.606Z,8.60
2023-02-24T17:39:01.254Z,8.62
2023-02-24T17:41:28.110Z,8.61
2023-02-24T17:43:54.977Z,8.61
2023-02-24T17:46:22.373Z,8.62
2023-02-24T17:48:49.523Z,8.64
2023-02-24T17:51:17.276Z,8.61
2023-02-24T17:53:44.777Z,8.63
2023-02-24T17:56:12.318Z,8.60
2023-02-24T17:58:39.077Z,8.60
2023-02-24T18:01:06.805Z,8.58
2023-02-24T18:03:35.009Z,8.56
2023-02-24T18:06:05.730Z,8.54
2023-02-24T18:08:34.045Z,8.53
2023-02-24T18:11:01.072Z,8.51
2023-02-24T18:13:29.217Z,8.50
2023-02-24T18:15:56.098Z,8.40
2023-02-24T18:18:23.867Z,8.37
2023-02-24T18:20:50.568Z,8.34
2023-02-24T18:23:17.576Z,8.28
2023-02-24T18:25:44.949Z,8.27
2023-02-24T18:28:11.639Z,8.26
2023-02-24T18:30:41.393Z,8.23
2023-02-24T18:33:08.575Z,8.20
2023-02-24T18:35:37.658Z,8.16
2023-02-24T18:38:05.513Z,8.10
2023-02-24T18:40:32.420Z,8.05
2023-02-24T18:43:01.243Z,7.98
2023-02-24T18:45:30.830Z,7.87
2023-02-24T18:48:01.972Z,7.78
2023-02-24T18:50:28.555Z,7.69
2023-02-24T18:52:55.715Z,7.59
2023-02-24T18:55:22.452Z,7.48
2023-02-24T18:57:49.100Z,7.36
2023-02-24T19:00:16.395Z,7.28
2023-02-24T19:02:43.201Z,7.23
2023-02-24T19:05:10.334Z,7.17
2023-02-24T19:07:36.941Z,7.15
2023-02-24T19:10:05.353Z,7.11
2023-02-24T19:12:31.968Z,7.13
2023-02-24T19:14:58.690Z,7.09
2023-02-24T19:17:26.444Z,7.15
2023-02-24T19:19:54.066Z,7.16
2023-02-24T19:22:20.739Z,7.17
2023-02-24T19:24:47.676Z,7.16
2023-02-24T19:27:14.705Z,7.18
2023-02-24T19:29:41.414Z,7.18
2023-02-24T19:32:08.562Z,7.18
2023-02-24T19:34:36.848Z,7.17
2023-02-24T19:37:03.441Z,7.12
2023-02-24T19:39:30.929Z,6.98
2023-02-24T19:41:57.803Z,7.01
2023-02-24T19:44:24.570Z,7.00
2023-02-24T19:46:51.698Z,6.98
2023-02-24T19:49:18.308Z,6.96
2023-02-24T19:51:48.046Z,6.98
2023-02-24T19:54:16.477Z,6.98
2023-02-24T19:56:44.039Z,6.99
2023-02-24T19:59:11.496Z,7.02
2023-02-24T20:01:38.605Z,7.04
2023-02-24T20:04:06.161Z,7.04
2023-02-24T20:06:32.967Z,7.08
2023-02-24T20:09:00.233Z,7.02
2023-02-24T20:11:28.798Z,7.11
2023-02-24T20:13:55.963Z,7.13
2023-02-24T20:16:27.319Z,7.16
2023-02-24T20:18:57.172Z,7.17
2023-02-24T20:21:24.621Z,7.17
2023-02-24T20:23:51.585Z,7.17
2023-02-24T20:26:18.293Z,7.14
2023-02-24T20:28:46.616Z,7.18
2023-02-24T20:31:18.766Z,7.15
2023-02-24T20:33:47.754Z,7.19
2023-02-24T20:36:20.612Z,7.17
2023-02-24T20:38:47.981Z,7.13
2023-02-24T20:41:15.742Z,7.11
2023-02-24T20:43:42.548Z,7.09
2023-02-24T20:46:13.433Z,7.02
2023-02-24T20:48:40.185Z,6.99
2023-02-24T20:51:07.806Z,6.98
2023-02-24T20:53:47.832Z,6.96
2023-02-24T20:56:22.512Z,6.91
2023-02-24T20:58:50.766Z,6.90
2023-02-24T21:01:17.799Z,6.82
2023-02-24T21:03:45.209Z,6.71
2023-02-24T21:06:13.427Z,6.65
2023-02-24T21:08:40.091Z,6.58
2023-02-24T21:11:10.999Z,6.48
2023-02-24T21:13:46.010Z,6.36
2023-02-24T21:16:14.739Z,6.30
2023-02-24T21:18:43.401Z,6.20
2023-02-24T21:21:10.950Z,6.10
2023-02-24T21:23:39.617Z,6.03
2023-02-24T21:26:07.073Z,5.95
2023-02-24T21:28:34.188Z,5.84
2023-02-24T21:31:01.823Z,5.70
2023-02-24T21:33:28.744Z,5.75
2023-02-24T21:35:59.575Z,5.74
2023-02-24T21:38:26.558Z,5.72
2023-02-24T21:40:53.476Z,5.72
2023-02-24T21:43:21.782Z,5.69
2023-02-24T21:45:48.581Z,5.69
2023-02-24T21:48:15.485Z,5.72
2023-02-24T21:50:42.605Z,5.75
2023-02-24T21:53:09.410Z,5.77
2023-02-24T21:55:38.647Z,5.78
2023-02-24T21:58:05.763Z,5.82
2023-02-24T22:00:32.935Z,5.84
2023-02-24T22:02:59.679Z,5.90
2023-02-24T22:05:26.944Z,5.91
2023-02-24T22:07:53.673Z,5.95
2023-02-24T22:10:23.877Z,6.01
2023-02-24T22:12:50.949Z,6.00
2023-02-24T22:15:18.008Z,6.07
2023-02-24T22:17:44.661Z,6.10
2023-02-24T22:20:13.516Z,6.13
2023-02-24T22:22:41.962Z,6.16
2023-02-24T22:25:14.251Z,6.20
2023-02-24T22:27:41.087Z,6.26
2023-02-24T22:30:08.393Z,6.26
2023-02-24T22:32:35.720Z,6.32
2023-02-24T22:35:02.352Z,6.32
2023-02-24T22:37:29.808Z,6.35
2023-02-24T22:39:56.579Z,6.39
2023-02-24T22:42:23.401Z,6.38
2023-02-24T22:44:50.028Z,6.43
2023-02-24T22:47:17.060Z,6.45
2023-02-24T22:49:43.912Z,6.47
2023-02-24T22:52:11.766Z,6.47
2023-02-24T22:54:38.395Z,6.46
2023-02-24T22:57:05.234Z,6.46
2023-02-24T22:59:33.103Z,6.43
2023-02-24T23:01:59.820Z,6.42
2023-02-24T23:04:29.264Z,6.38
2023-02-24T23:06:57.370Z,6.44
2023-02-24T23:09:24.277Z,6.44
2023-02-24T23:11:51.137Z,6.43
2023-02-24T23:14:18.020Z,6.43
2023-02-24T23:16:47.333Z,6.42
2023-02-24T23:19:17.838Z,6.43
2023-02-24T23:21:47.384Z,6.44
2023-02-24T23:24:14.823Z,6.44
2023-02-24T23:26:57.757Z,6.46
2023-02-24T23:29:26.623Z,6.45
2023-02-24T23:31:53.804Z,6.44
2023-02-24T23:34:20.945Z,6.45
2023-02-24T23:36:48.085Z,6.49
2023-02-24T23:39:20.404Z,6.50
2023-02-24T23:41:47.696Z,6.52
2023-02-24T23:44:14.434Z,6.52
2023-02-24T23:46:44.322Z,6.52
2023-02-24T23:49:11.759Z,6.51
2023-02-24T23:51:48.056Z,6.54
2023-02-24T23:54:15.883Z,6.52
2023-02-24T23:56:42.684Z,6.42
2023-02-24T23:59:09.536Z,6.52
